Time;durP1;ratioP1;P1;durP2;ratioP2;P2;SDS_P1;SDS_P2;PMS_P1;PMS_P2;Temp;Humidity;BMP_temperature;BMP_pressure;BME280_temperature;BME280_humidity;BME280_pressure;Samples;Min_cycle;Max_cycle;Signal;HPM_P1;HPM_P2
2021/07/12 00:00:58;;;;;;;13.93;12.53;;;19.60;99.90;;;;;;5030264;28;20247;-68
2021/07/12 00:03:27;;;;;;;17.77;14.30;;;19.60;99.90;;;;;;5033816;28;20238;-68
2021/07/12 00:05:56;;;;;;;16.40;14.70;;;19.60;99.90;;;;;;5050405;28;20238;-67
2021/07/12 00:08:25;;;;;;;15.83;14.50;;;19.60;99.90;;;;;;5046525;28;20243;-68
2021/07/12 00:10:55;;;;;;;15.60;14.00;;;19.60;99.90;;;;;;5030470;28;20692;-69
2021/07/12 00:13:25;;;;;;;15.73;14.10;;;19.60;99.90;;;;;;5033064;28;20969;-68
2021/07/12 00:15:54;;;;;;;17.97;15.77;;;19.60;99.90;;;;;;5039720;28;20239;-68
2021/07/12 00:18:26;;;;;;;18.13;16.53;;;19.50;99.90;;;;;;5032764;28;20292;-69
2021/07/12 00:20:55;;;;;;;16.90;15.30;;;19.50;99.90;;;;;;5035922;28;20327;-68
2021/07/12 00:23:28;;;;;;;17.03;15.23;;;19.50;99.90;;;;;;5033281;28;20297;-68
2021/07/12 00:25:57;;;;;;;16.10;14.43;;;19.50;99.90;;;;;;5050021;28;20317;-68
2021/07/12 00:28:29;;;;;;;15.63;13.73;;;19.50;99.90;;;;;;5045590;28;20239;-68
2021/07/12 00:30:59;;;;;;;15.23;13.73;;;19.50;99.90;;;;;;5029998;28;20273;-68
2021/07/12 00:33:31;;;;;;;15.53;13.97;;;19.50;99.90;;;;;;5029662;28;20246;-67
2021/07/12 00:36:01;;;;;;;14.90;13.50;;;19.50;99.90;;;;;;5030164;28;20243;-68
2021/07/12 00:38:31;;;;;;;15.80;14.20;;;19.50;99.90;;;;;;5033643;28;20238;-68
2021/07/12 00:41:01;;;;;;;16.60;15.13;;;19.50;99.90;;;;;;5064789;28;20235;-68
2021/07/12 00:43:35;;;;;;;15.33;13.80;;;19.60;99.90;;;;;;5064409;28;20238;-68
2021/07/12 00:46:08;;;;;;;17.63;14.97;;;19.50;99.90;;;;;;5052626;28;20642;-67
2021/07/12 00:48:40;;;;;;;17.70;14.30;;;19.50;99.90;;;;;;5028180;28;20235;-67
2021/07/12 00:51:10;;;;;;;15.87;14.17;;;19.50;99.90;;;;;;5029600;28;20653;-68
2021/07/12 00:53:40;;;;;;;15.87;13.63;;;19.50;99.90;;;;;;5034498;28;20230;-68
2021/07/12 00:56:13;;;;;;;16.80;14.20;;;19.50;99.90;;;;;;5064758;28;20257;-68
2021/07/12 00:58:44;;;;;;;17.27;13.77;;;19.50;99.90;;;;;;5058414;28;20251;-68
2021/07/12 01:01:14;;;;;;;18.20;15.63;;;19.50;99.90;;;;;;5029209;28;20240;-67
2021/07/12 01:03:46;;;;;;;15.83;14.33;;;19.50;99.90;;;;;;5035092;28;20239;-69
2021/07/12 01:06:15;;;;;;;20.20;15.00;;;19.50;99.90;;;;;;5049371;28;20668;-68
2021/07/12 01:08:45;;;;;;;22.10;17.40;;;19.50;99.90;;;;;;5041349;28;20262;-68
2021/07/12 01:11:25;;;;;;;18.40;15.60;;;19.50;99.90;;;;;;5043955;28;20267;-68
2021/07/12 01:14:02;;;;;;;17.13;15.30;;;19.50;99.90;;;;;;5016953;28;20271;-67
2021/07/12 01:16:51;;;;;;;15.30;13.80;;;19.40;99.90;;;;;;5043896;28;20240;-67
2021/07/12 01:19:50;;;;;;;15.00;13.50;;;19.50;99.90;;;;;;5039539;28;20659;-68
2021/07/12 01:22:47;;;;;;;15.00;13.20;;;19.50;99.90;;;;;;5028338;28;20289;-68
2021/07/12 01:26:06;;;;;;;15.30;13.20;;;19.40;99.90;;;;;;5028498;28;20269;-68
2021/07/12 01:29:02;;;;;;;15.43;13.73;;;19.50;99.90;;;;;;5033233;28;20311;-68
2021/07/12 01:32:19;;;;;;;16.07;13.57;;;19.50;99.90;;;;;;5023730;28;20234;-68
2021/07/12 01:35:01;;;;;;;15.10;13.73;;;19.50;99.90;;;;;;5012154;28;20331;-69
2021/07/12 01:37:43;;;;;;;14.77;13.20;;;19.50;99.90;;;;;;5028328;28;20243;-68
2021/07/12 01:40:29;;;;;;;14.10;12.70;;;19.50;99.90;;;;;;5061510;28;20238;-68
2021/07/12 01:43:07;;;;;;;13.47;12.27;;;19.50;99.90;;;;;;5048594;28;20719;-68
2021/07/12 01:45:51;;;;;;;14.20;12.73;;;19.50;99.90;;;;;;5023763;28;20239;-68
2021/07/12 01:48:32;;;;;;;13.20;12.00;;;19.50;99.90;;;;;;5029405;28;20289;-68
2021/07/12 01:51:10;;;;;;;14.33;12.80;;;19.50;99.90;;;;;;5063393;28;20235;-68
2021/07/12 01:53:46;;;;;;;14.13;12.10;;;19.50;99.90;;;;;;5063072;28;20242;-68
2021/07/12 01:56:31;;;;;;;12.63;11.37;;;19.50;99.90;;;;;;5048427;28;20750;-66
2021/07/12 01:59:07;;;;;;;13.47;12.27;;;19.40;99.90;;;;;;5040020;28;20242;-67
2021/07/12 02:01:41;;;;;;;12.17;11.00;;;19.50;99.90;;;;;;5042876;28;20242;-68
2021/07/12 02:04:13;;;;;;;15.33;12.50;;;19.40;99.90;;;;;;5053407;28;20257;-68
2021/07/12 02:06:46;;;;;;;12.27;11.17;;;19.40;99.90;;;;;;5048173;28;20272;-68
2021/07/12 02:09:20;;;;;;;12.17;10.97;;;19.50;99.90;;;;;;5042623;28;20243;-68
2021/07/12 02:11:57;;;;;;;12.03;10.90;;;19.50;99.90;;;;;;5042971;28;20757;-68
2021/07/12 02:14:30;;;;;;;12.77;11.67;;;19.50;99.90;;;;;;5055229;28;20583;-68
2021/07/12 02:17:04;;;;;;;13.30;12.00;;;19.50;99.90;;;;;;5043157;28;20242;-68
2021/07/12 02:19:34;;;;;;;12.57;11.47;;;19.40;99.90;;;;;;5042621;28;20237;-68
2021/07/12 02:22:05;;;;;;;12.20;11.10;;;19.40;99.90;;;;;;5027905;28;20235;-68
2021/07/12 02:24:55;;;;;;;12.27;11.07;;;19.40;99.90;;;;;;5042471;28;20707;-68
2021/07/12 02:27:25;;;;;;;13.10;11.87;;;19.30;99.90;;;;;;5026386;28;20239;-67
2021/07/12 02:29:56;;;;;;;13.60;12.30;;;19.40;99.90;;;;;;5028699;28;20600;-68
2021/07/12 02:32:27;;;;;;;12.20;11.10;;;19.40;99.90;;;;;;5043045;28;20654;-68
2021/07/12 02:34:57;;;;;;;12.57;11.37;;;19.40;99.90;;;;;;5058310;28;20239;-68
2021/07/12 02:37:35;;;;;;;11.83;10.73;;;19.40;99.90;;;;;;5062723;28;20270;-68
2021/07/12 02:40:05;;;;;;;13.90;11.97;;;19.40;99.90;;;;;;5062172;28;20243;-68
2021/07/12 02:42:36;;;;;;;12.03;10.93;;;19.30;99.90;;;;;;5049358;28;20231;-67
2021/07/12 02:45:07;;;;;;;12.10;10.97;;;19.30;99.90;;;;;;5042381;28;20270;-68
2021/07/12 02:47:39;;;;;;;12.10;10.90;;;19.30;99.90;;;;;;5042432;28;20696;-68
2021/07/12 02:50:10;;;;;;;11.73;10.63;;;19.30;99.90;;;;;;5042404;28;20247;-68
2021/07/12 02:52:47;;;;;;;11.43;10.43;;;19.30;99.90;;;;;;5027185;28;20313;-68
2021/07/12 02:55:16;;;;;;;11.30;10.10;;;19.30;99.90;;;;;;5060963;28;20237;-66
2021/07/12 02:57:46;;;;;;;11.60;10.53;;;19.30;99.90;;;;;;5047304;28;20326;-68
2021/07/12 03:00:17;;;;;;;12.20;11.10;;;19.30;99.90;;;;;;5043425;28;20247;-67
2021/07/12 03:02:45;;;;;;;11.33;10.30;;;19.30;99.90;;;;;;5043652;28;20242;-68
2021/07/12 03:05:16;;;;;;;12.37;11.27;;;19.20;99.90;;;;;;5034325;28;20233;-67
2021/07/12 03:07:55;;;;;;;11.90;10.90;;;19.20;99.90;;;;;;5026445;28;20736;-68
2021/07/12 03:10:27;;;;;;;12.57;11.47;;;19.20;99.90;;;;;;5046790;28;20323;-67
2021/07/12 03:13:00;;;;;;;10.97;10.07;;;19.20;99.90;;;;;;5049447;28;20850;-68
2021/07/12 03:15:34;;;;;;;12.17;10.97;;;19.20;99.90;;;;;;5025827;28;20311;-67
2021/07/12 03:18:06;;;;;;;12.87;11.60;;;19.30;99.90;;;;;;5012187;28;20240;-68
2021/07/12 03:20:37;;;;;;;12.87;11.60;;;19.20;99.90;;;;;;5050553;28;20640;-68
2021/07/12 03:23:13;;;;;;;11.67;10.67;;;19.20;99.90;;;;;;5050536;28;20509;-68
2021/07/12 03:25:47;;;;;;;12.03;10.90;;;19.20;99.90;;;;;;5066028;28;20233;-68
2021/07/12 03:28:17;;;;;;;11.57;10.57;;;19.20;99.90;;;;;;5055421;28;20296;-67
2021/07/12 03:30:48;;;;;;;11.00;10.00;;;19.20;99.90;;;;;;5045766;28;20326;-67
2021/07/12 03:33:17;;;;;;;11.90;10.90;;;19.20;99.90;;;;;;5032576;28;20234;-66
2021/07/12 03:35:49;;;;;;;11.30;10.07;;;19.20;99.90;;;;;;5065766;28;20257;-68
2021/07/12 03:38:21;;;;;;;11.20;10.20;;;19.30;99.90;;;;;;5050498;28;20242;-68
2021/07/12 03:40:50;;;;;;;11.63;10.57;;;19.30;99.90;;;;;;5064626;28;20316;-67
2021/07/12 03:43:22;;;;;;;10.50;9.50;;;19.30;99.90;;;;;;5030333;28;20236;-67
2021/07/12 03:45:55;;;;;;;14.43;10.27;;;19.30;99.90;;;;;;5029949;28;20726;-67
2021/07/12 03:48:35;;;;;;;11.97;10.77;;;19.30;99.90;;;;;;5048794;28;20548;-68
2021/07/12 03:51:06;;;;;;;11.40;10.30;;;19.30;99.90;;;;;;5065412;28;20341;-68
2021/07/12 03:53:40;;;;;;;10.33;9.43;;;19.30;99.90;;;;;;5059721;28;20568;-68
2021/07/12 03:56:09;;;;;;;12.37;10.63;;;19.40;99.90;;;;;;5029837;28;20262;-68
2021/07/12 03:58:37;;;;;;;11.43;10.43;;;19.30;99.90;;;;;;5035091;28;20235;-68
2021/07/12 04:01:09;;;;;;;11.93;9.77;;;19.30;99.90;;;;;;5050175;28;20239;-68
2021/07/12 04:03:37;;;;;;;10.90;9.80;;;19.40;99.90;;;;;;5044822;28;20285;-68
2021/07/12 04:06:07;;;;;;;11.27;10.27;;;19.40;99.90;;;;;;5029990;28;20648;-68
2021/07/12 04:08:35;;;;;;;11.07;10.07;;;19.40;99.90;;;;;;5034189;28;20231;-68
2021/07/12 04:11:05;;;;;;;11.37;10.27;;;19.50;99.90;;;;;;5049729;28;20571;-68
2021/07/12 04:13:33;;;;;;;9.80;8.83;;;19.50;99.90;;;;;;5049585;28;20238;-68
2021/07/12 04:16:01;;;;;;;10.53;9.57;;;19.50;99.90;;;;;;5034150;28;20594;-68
2021/07/12 04:18:29;;;;;;;10.87;9.77;;;19.60;99.90;;;;;;5046480;28;20235;-67
2021/07/12 04:20:57;;;;;;;10.63;9.70;;;19.60;99.90;;;;;;5049995;28;20242;-67
2021/07/12 04:23:26;;;;;;;10.97;9.90;;;19.70;99.90;;;;;;5037012;28;20247;-69
2021/07/12 04:25:54;;;;;;;10.27;9.40;;;19.70;99.90;;;;;;5049307;28;20254;-68
2021/07/12 04:28:23;;;;;;;11.27;10.20;;;19.70;99.90;;;;;;5047896;28;20273;-68
2021/07/12 04:30:51;;;;;;;10.17;9.27;;;19.80;99.90;;;;;;5049616;28;20251;-67
2021/07/12 04:33:19;;;;;;;11.40;9.90;;;19.90;99.90;;;;;;5049342;28;20261;-68
2021/07/12 04:35:49;;;;;;;10.40;9.60;;;19.90;99.90;;;;;;5048993;28;20363;-68
2021/07/12 04:38:18;;;;;;;11.83;9.80;;;19.90;99.90;;;;;;5046945;28;20748;-68
2021/07/12 04:40:46;;;;;;;9.93;9.03;;;19.90;99.90;;;;;;5029695;28;20319;-68
2021/07/12 04:43:14;;;;;;;11.13;10.03;;;19.90;99.90;;;;;;5045652;28;20580;-68
2021/07/12 04:45:44;;;;;;;10.80;9.70;;;19.90;99.90;;;;;;5043066;28;20236;-68
2021/07/12 04:48:12;;;;;;;10.17;9.13;;;19.90;99.90;;;;;;5029262;28;20230;-68
2021/07/12 04:50:40;;;;;;;10.77;9.67;;;19.90;99.90;;;;;;5029288;28;20243;-68
2021/07/12 04:53:09;;;;;;;12.23;9.97;;;20.00;99.90;;;;;;5028698;28;20703;-69
2021/07/12 04:55:37;;;;;;;11.00;9.87;;;20.00;99.90;;;;;;5047524;28;20322;-69
2021/07/12 04:58:05;;;;;;;10.47;9.47;;;20.20;99.90;;;;;;5047833;28;20273;-69
2021/07/12 05:00:35;;;;;;;10.00;9.10;;;20.30;99.90;;;;;;5047189;28;20235;-69
2021/07/12 05:03:06;;;;;;;9.70;8.90;;;20.40;99.90;;;;;;5047536;28;20317;-69
2021/07/12 05:05:34;;;;;;;10.03;9.03;;;20.50;99.90;;;;;;5047239;28;20234;-69
2021/07/12 05:08:03;;;;;;;10.13;9.23;;;20.50;99.90;;;;;;5047360;28;20242;-68
2021/07/12 05:10:31;;;;;;;10.50;9.60;;;20.50;99.90;;;;;;5046992;28;20711;-69
2021/07/12 05:12:59;;;;;;;10.30;9.33;;;20.50;99.90;;;;;;5047719;28;20711;-69
2021/07/12 05:15:27;;;;;;;10.57;9.63;;;20.50;99.90;;;;;;5010951;28;20291;-68
2021/07/12 05:17:55;;;;;;;10.43;9.40;;;20.60;99.90;;;;;;5027907;28;20266;-69
2021/07/12 05:20:25;;;;;;;10.10;9.30;;;20.60;99.90;;;;;;5043284;28;20331;-70
2021/07/12 05:22:53;;;;;;;10.20;9.33;;;20.70;99.90;;;;;;5027453;28;20248;-69
2021/07/12 05:25:21;;;;;;;9.80;8.90;;;20.80;99.90;;;;;;5045338;28;20242;-69
2021/07/12 05:27:49;;;;;;;10.10;9.03;;;20.80;99.90;;;;;;5026156;28;20309;-69
2021/07/12 05:30:19;;;;;;;9.97;9.07;;;20.90;99.90;;;;;;5025965;28;20251;-70
2021/07/12 05:32:47;;;;;;;10.47;9.47;;;21.00;99.90;;;;;;5034942;28;20334;-68
2021/07/12 05:35:15;;;;;;;10.07;9.13;;;21.10;99.90;;;;;;5024823;28;20271;-70
2021/07/12 05:37:45;;;;;;;9.20;8.43;;;21.20;99.90;;;;;;5025451;28;20236;-71
2021/07/12 05:40:14;;;;;;;10.87;9.70;;;21.40;99.90;;;;;;5042783;28;20315;-69
2021/07/12 05:42:42;;;;;;;11.53;8.87;;;21.50;99.90;;;;;;5026593;28;20239;-71
2021/07/12 05:45:11;;;;;;;10.13;9.23;;;21.70;99.90;;;;;;5042955;28;20733;-71
2021/07/12 05:47:39;;;;;;;9.93;8.93;;;21.90;99.90;;;;;;5028144;28;20289;-70
2021/07/12 05:50:10;;;;;;;9.27;8.53;;;22.00;99.90;;;;;;5027283;28;20327;-71
2021/07/12 05:52:38;;;;;;;9.40;8.60;;;22.10;99.90;;;;;;5013593;28;20770;-69
2021/07/12 05:55:09;;;;;;;9.43;8.53;;;22.20;99.90;;;;;;5030161;28;20337;-72
2021/07/12 05:57:38;;;;;;;9.37;8.47;;;22.20;99.90;;;;;;5027442;28;20271;-69
2021/07/12 06:00:09;;;;;;;9.70;8.90;;;22.30;99.90;;;;;;5029070;28;20859;-71
2021/07/12 06:02:40;;;;;;;9.17;8.47;;;22.60;99.90;;;;;;5027559;28;20246;-71
2021/07/12 06:05:09;;;;;;;9.47;8.47;;;22.80;99.90;;;;;;5026542;28;20243;-70
2021/07/12 06:07:38;;;;;;;8.90;8.13;;;22.80;99.90;;;;;;5027696;28;20250;-71
2021/07/12 06:10:09;;;;;;;9.07;8.27;;;23.00;99.90;;;;;;5026740;28;20271;-70
2021/07/12 06:12:37;;;;;;;9.33;7.90;;;23.10;99.90;;;;;;5008208;28;20276;-70
2021/07/12 06:15:07;;;;;;;9.57;8.63;;;23.20;99.90;;;;;;5035008;28;20232;-69
2021/07/12 06:17:35;;;;;;;9.30;8.57;;;23.30;99.90;;;;;;5018879;28;20243;-71
2021/07/12 06:20:06;;;;;;;9.30;8.47;;;23.40;99.90;;;;;;5056421;28;20712;-70
2021/07/12 06:22:35;;;;;;;9.50;8.60;;;23.50;99.90;;;;;;5030546;28;20237;-69
2021/07/12 06:25:03;;;;;;;10.80;8.00;;;23.50;99.90;;;;;;5023991;28;20240;-70
2021/07/12 06:27:33;;;;;;;10.23;9.33;;;23.60;99.90;;;;;;5027149;28;20240;-71
2021/07/12 06:30:01;;;;;;;9.23;8.33;;;23.70;99.90;;;;;;5046007;28;20247;-70
2021/07/12 06:32:29;;;;;;;8.53;7.73;;;23.80;99.90;;;;;;5032882;28;20597;-71
2021/07/12 06:34:57;;;;;;;8.40;7.67;;;24.00;99.90;;;;;;5026680;28;20247;-71
2021/07/12 06:37:26;;;;;;;8.83;7.93;;;24.20;99.90;;;;;;5024322;28;20249;-70
2021/07/12 06:39:54;;;;;;;8.77;7.87;;;24.20;99.90;;;;;;5039547;28;20263;-70
2021/07/12 06:42:23;;;;;;;9.13;8.33;;;24.20;99.90;;;;;;5047631;28;20236;-71
2021/07/12 06:44:57;;;;;;;8.30;7.60;;;24.50;99.90;;;;;;5024081;28;20259;-70
2021/07/12 06:47:26;;;;;;;8.47;7.77;;;24.50;99.90;;;;;;5023625;28;20240;-69
2021/07/12 06:50:00;;;;;;;8.83;7.97;;;24.70;99.90;;;;;;5039098;28;20257;-71
2021/07/12 06:52:28;;;;;;;8.17;7.47;;;24.60;99.90;;;;;;5024232;28;20605;-71
2021/07/12 06:54:56;;;;;;;8.90;8.00;;;24.60;99.90;;;;;;5023898;28;20708;-70
2021/07/12 06:57:24;;;;;;;8.17;7.50;;;24.80;99.90;;;;;;5023930;28;20269;-71
2021/07/12 06:59:55;;;;;;;8.13;7.40;;;25.10;99.90;;;;;;5023701;28;20251;-71
2021/07/12 07:02:24;;;;;;;7.90;7.30;;;25.30;99.90;;;;;;5024311;28;20241;-69
2021/07/12 07:05:05;;;;;;;9.83;7.57;;;25.20;99.90;;;;;;5037927;28;20241;-70
2021/07/12 07:07:34;;;;;;;8.03;7.23;;;25.30;99.90;;;;;;5023391;28;20264;-69
2021/07/12 07:10:04;;;;;;;8.77;7.87;;;25.10;99.90;;;;;;5039428;28;20235;-71
2021/07/12 07:12:34;;;;;;;8.83;7.93;;;25.10;99.90;;;;;;5057712;28;20239;-68
2021/07/12 07:15:04;;;;;;;8.27;7.57;;;25.00;99.90;;;;;;5026037;28;20247;-70
2021/07/12 07:17:32;;;;;;;8.03;7.33;;;25.20;99.90;;;;;;5022803;28;20237;-70
2021/07/12 07:20:00;;;;;;;10.90;7.37;;;25.40;99.90;;;;;;5022571;28;20241;-70
2021/07/12 07:22:29;;;;;;;7.80;7.03;;;25.60;99.90;;;;;;5022693;28;20415;-70
2021/07/12 07:24:57;;;;;;;8.10;7.30;;;25.90;99.90;;;;;;5022889;28;20351;-69
2021/07/12 07:27:42;;;;;;;9.20;7.80;;;25.90;99.90;;;;;;5037924;28;20662;-69
2021/07/12 07:30:13;;;;;;;10.07;7.30;;;25.90;99.90;;;;;;5022553;28;20266;-70
2021/07/12 07:32:42;;;;;;;8.30;7.50;;;25.60;99.90;;;;;;5022752;28;20533;-70
2021/07/12 07:35:12;;;;;;;8.23;7.50;;;25.60;99.90;;;;;;5022331;28;20537;-70
2021/07/12 07:37:41;;;;;;;7.73;6.93;;;25.60;99.90;;;;;;5022894;28;20300;-69
2021/07/12 07:40:10;;;;;;;7.93;7.23;;;25.90;99.90;;;;;;5022425;28;20740;-70
2021/07/12 07:42:38;;;;;;;8.53;7.73;;;26.30;99.90;;;;;;5022725;28;20242;-69
2021/07/12 07:45:09;;;;;;;8.33;7.53;;;26.40;99.90;;;;;;5022349;28;20549;-70
2021/07/12 07:47:38;;;;;;;8.03;7.23;;;26.40;99.90;;;;;;5022513;28;20242;-70
2021/07/12 07:50:20;;;;;;;8.63;7.77;;;26.60;99.90;;;;;;5022709;28;20734;-70
2021/07/12 07:52:49;;;;;;;8.07;7.10;;;26.90;99.90;;;;;;5023645;28;20242;-69
2021/07/12 07:55:17;;;;;;;7.97;6.97;;;27.30;99.90;;;;;;5023979;28;20258;-70
2021/07/12 07:57:45;;;;;;;7.97;7.27;;;27.40;99.90;;;;;;5024317;28;20244;-69
2021/07/12 08:00:16;;;;;;;7.47;6.80;;;27.40;99.90;;;;;;5027079;28;20233;-69
2021/07/12 08:02:46;;;;;;;7.23;6.40;;;27.80;99.90;;;;;;5027341;28;20247;-70
2021/07/12 08:05:14;;;;;;;7.00;6.30;;;28.10;99.90;;;;;;5045050;28;20387;-69
2021/07/12 08:07:42;;;;;;;7.20;6.53;;;28.60;99.90;;;;;;5041666;28;20236;-70
2021/07/12 08:10:13;;;;;;;7.70;7.00;;;28.80;99.90;;;;;;5026952;28;20772;-69
2021/07/12 08:12:42;;;;;;;7.63;6.77;;;28.90;99.90;;;;;;5027202;28;20316;-70
2021/07/12 08:15:12;;;;;;;7.70;6.90;;;28.60;99.90;;;;;;5026912;28;20574;-70
2021/07/12 08:17:41;;;;;;;7.07;6.37;;;28.70;99.90;;;;;;5027037;28;20641;-69
2021/07/12 08:20:13;;;;;;;7.67;6.90;;;28.60;99.90;;;;;;5044641;28;20254;-69
2021/07/12 08:22:49;;;;;;;7.10;6.50;;;28.40;99.90;;;;;;5046894;28;20350;-70
2021/07/12 08:25:17;;;;;;;7.43;6.80;;;28.10;99.90;;;;;;5046826;28;20296;-69
2021/07/12 08:27:46;;;;;;;8.10;7.47;;;27.90;99.90;;;;;;5047200;28;20243;-70
2021/07/12 08:30:15;;;;;;;8.23;7.07;;;27.80;99.90;;;;;;5041538;28;20246;-69
2021/07/12 08:32:45;;;;;;;7.63;6.93;;;27.90;99.90;;;;;;5027168;28;20262;-69
2021/07/12 08:35:15;;;;;;;7.03;6.43;;;28.30;99.90;;;;;;5044400;28;21172;-70
2021/07/12 08:37:49;;;;;;;8.53;6.37;;;29.00;99.90;;;;;;5047040;28;20301;-70
2021/07/12 08:40:18;;;;;;;6.70;6.20;;;29.60;99.90;;;;;;5046402;28;20239;-69
2021/07/12 08:42:49;;;;;;;7.10;6.50;;;29.40;99.90;;;;;;5046553;28;20254;-69
2021/07/12 08:45:17;;;;;;;7.20;6.50;;;29.10;99.90;;;;;;5027828;28;20656;-69
2021/07/12 08:47:45;;;;;;;7.50;6.50;;;28.90;99.90;;;;;;5026779;28;20241;-69
2021/07/12 08:50:15;;;;;;;6.77;6.10;;;28.90;99.90;;;;;;5044414;28;20281;-70
2021/07/12 08:52:44;;;;;;;6.97;6.23;;;29.20;99.90;;;;;;5046450;28;20308;-70
2021/07/12 08:55:12;;;;;;;6.67;6.17;;;29.60;99.90;;;;;;5046362;28;20700;-69
2021/07/12 08:57:54;;;;;;;6.63;6.03;;;29.90;99.90;;;;;;5046451;28;20334;-69
2021/07/12 09:00:44;;;;;;;8.20;6.10;;;29.90;99.90;;;;;;5026300;28;20328;-69
2021/07/12 09:03:19;;;;;;;6.73;6.13;;;30.00;99.90;;;;;;5027640;28;20250;-69
2021/07/12 09:06:07;;;;;;;8.93;6.73;;;30.20;99.90;;;;;;5045785;28;20254;-69
2021/07/12 09:08:47;;;;;;;8.13;6.03;;;30.10;99.90;;;;;;5045370;28;20640;-69
2021/07/12 09:11:19;;;;;;;6.50;5.90;;;30.10;99.90;;;;;;5039927;28;20232;-70
2021/07/12 09:13:50;;;;;;;6.73;6.17;;;30.10;99.90;;;;;;5025679;28;20716;-69
2021/07/12 09:16:40;;;;;;;7.00;6.40;;;29.90;99.90;;;;;;5025964;28;20314;-70
2021/07/12 09:19:15;;;;;;;6.63;6.00;;;29.60;99.90;;;;;;5034520;28;20825;-70
2021/07/12 09:21:47;;;;;;;7.10;6.60;;;29.00;99.90;;;;;;5045899;28;20308;-69
2021/07/12 09:24:18;;;;;;;6.63;5.93;;;28.90;99.90;;;;;;5045671;28;20700;-69
2021/07/12 09:26:48;;;;;;;6.63;6.03;;;29.00;99.90;;;;;;5045850;28;20243;-70
2021/07/12 09:29:18;;;;;;;7.23;6.57;;;29.30;99.90;;;;;;5045336;28;20604;-70
2021/07/12 09:31:47;;;;;;;6.90;6.30;;;28.90;99.90;;;;;;5027882;28;20310;-70
2021/07/12 09:34:18;;;;;;;8.43;6.70;;;29.00;99.90;;;;;;5025464;28;20320;-70
2021/07/12 09:36:48;;;;;;;7.33;6.73;;;28.90;99.90;;;;;;5005653;28;20276;-70
2021/07/12 09:39:32;;;;;;;8.00;7.30;;;28.60;99.90;;;;;;5016132;28;20244;-70
2021/07/12 09:42:05;;;;;;;8.10;7.37;;;28.40;99.90;;;;;;5025209;28;20248;-70
2021/07/12 09:44:34;;;;;;;7.80;7.07;;;28.20;99.90;;;;;;5037718;28;20263;-70
2021/07/12 09:47:11;;;;;;;7.50;6.80;;;28.70;99.90;;;;;;5045398;28;20244;-69
2021/07/12 09:49:39;;;;;;;7.83;7.13;;;29.00;99.90;;;;;;5031976;28;20333;-69
2021/07/12 09:52:12;;;;;;;7.60;6.90;;;29.30;99.90;;;;;;5025385;28;20236;-69
2021/07/12 09:54:41;;;;;;;7.67;6.57;;;29.70;99.90;;;;;;5024543;28;20238;-69
2021/07/12 09:57:12;;;;;;;7.60;6.80;;;29.40;99.90;;;;;;5025500;28;20244;-68
2021/07/12 09:59:56;;;;;;;7.20;6.50;;;29.60;99.90;;;;;;5038476;28;20239;-69
2021/07/12 10:02:26;;;;;;;6.13;5.60;;;29.60;99.90;;;;;;5045343;28;20331;-69
2021/07/12 10:04:58;;;;;;;6.57;6.07;;;30.20;99.90;;;;;;5044503;28;20298;-69
2021/07/12 10:07:29;;;;;;;6.53;5.93;;;30.40;99.90;;;;;;5044982;28;20240;-69
2021/07/12 10:09:59;;;;;;;6.60;5.63;;;30.20;99.90;;;;;;5044906;28;20334;-69
2021/07/12 10:12:28;;;;;;;7.23;5.20;;;30.20;99.90;;;;;;5045169;28;20237;-69
2021/07/12 10:14:57;;;;;;;6.00;5.50;;;30.40;99.90;;;;;;5029053;28;20669;-69
2021/07/12 10:17:25;;;;;;;6.13;5.63;;;30.20;99.90;;;;;;5024497;28;20788;-69
2021/07/12 10:19:56;;;;;;;5.90;5.40;;;29.90;99.90;;;;;;5025971;28;20248;-69
2021/07/12 10:22:25;;;;;;;6.70;6.10;;;30.00;99.90;;;;;;5026960;28;20262;-69
2021/07/12 10:25:06;;;;;;;6.53;5.70;;;29.30;99.90;;;;;;5042696;28;20600;-70
2021/07/12 10:27:47;;;;;;;6.37;5.83;;;28.60;99.90;;;;;;5047482;28;20305;-70
2021/07/12 10:30:28;;;;;;;6.77;6.03;;;28.00;99.90;;;;;;5028689;28;20232;-70
2021/07/12 10:32:58;;;;;;;6.73;6.13;;;27.70;99.90;;;;;;5027792;28;20244;-70
2021/07/12 10:35:41;;;;;;;6.50;6.00;;;27.70;99.90;;;;;;5044314;28;20243;-70
2021/07/12 10:38:12;;;;;;;6.60;6.10;;;27.70;99.90;;;;;;5028203;28;20294;-70
2021/07/12 10:40:55;;;;;;;6.27;5.80;;;27.40;99.90;;;;;;5036368;28;20232;-71
2021/07/12 10:43:35;;;;;;;7.07;6.27;;;27.40;99.90;;;;;;5026521;28;20245;-70
2021/07/12 10:46:03;;;;;;;7.37;6.33;;;27.50;99.90;;;;;;5024782;28;20232;-69
2021/07/12 10:48:35;;;;;;;6.80;6.20;;;27.80;99.90;;;;;;5027614;28;20254;-69
2021/07/12 10:51:17;;;;;;;6.20;5.60;;;28.40;99.90;;;;;;5026901;28;20235;-70
2021/07/12 10:53:58;;;;;;;6.33;5.63;;;29.10;99.90;;;;;;5031051;28;20293;-70
2021/07/12 10:59:28;;;;;;;6.47;5.87;;;29.20;99.90;;;;;;5095621;27;20604;-70
2021/07/12 11:01:57;;;;;;;6.23;5.73;;;29.20;99.90;;;;;;5085679;28;20573;-70
2021/07/12 11:04:33;;;;;;;6.73;5.63;;;29.30;99.90;;;;;;5075836;28;20242;-70
2021/07/12 11:07:03;;;;;;;6.23;5.63;;;29.20;99.90;;;;;;5083914;28;20601;-69
2021/07/12 11:10:03;;;;;;;5.90;5.40;;;29.30;99.90;;;;;;5083480;28;20249;-70
2021/07/12 11:12:50;;;;;;;5.87;5.37;;;28.90;99.90;;;;;;5049927;28;20295;-70
2021/07/12 11:15:30;;;;;;;5.27;4.90;;;28.80;99.90;;;;;;5082603;28;20271;-70
2021/07/12 11:18:06;;;;;;;5.57;5.17;;;28.80;99.90;;;;;;5093933;28;20322;-70
2021/07/12 11:21:02;;;;;;;5.80;5.30;;;29.00;99.90;;;;;;5081518;28;20292;-70
2021/07/12 11:23:53;;;;;;;5.60;5.20;;;29.00;99.90;;;;;;5095707;28;20238;-69
2021/07/12 11:26:53;;;;;;;5.57;5.17;;;28.60;99.90;;;;;;5079925;28;20264;-69
2021/07/12 11:29:32;;;;;;;5.77;5.20;;;28.70;99.90;;;;;;5079444;28;20308;-69
2021/07/12 11:32:16;;;;;;;5.60;5.10;;;28.60;99.90;;;;;;5081030;28;20292;-70
2021/07/12 11:34:55;;;;;;;5.17;4.70;;;28.50;99.90;;;;;;5088185;28;20311;-69
2021/07/12 11:37:26;;;;;;;5.50;5.00;;;28.50;99.90;;;;;;5100827;28;20237;-70
2021/07/12 11:39:56;;;;;;;5.10;4.80;;;27.90;99.90;;;;;;5100716;28;20324;-70
2021/07/12 11:42:27;;;;;;;5.40;4.90;;;28.20;99.90;;;;;;5091196;28;20292;-70
2021/07/12 11:44:58;;;;;;;6.00;5.60;;;28.50;99.90;;;;;;5072898;28;20277;-69
2021/07/12 11:47:31;;;;;;;5.73;5.03;;;28.50;99.90;;;;;;5060292;28;20624;-70
2021/07/12 11:50:02;;;;;;;5.67;4.80;;;29.00;99.90;;;;;;5080691;28;20717;-69
2021/07/12 11:52:31;;;;;;;5.80;5.23;;;29.40;99.90;;;;;;5079772;28;20325;-70
2021/07/12 11:55:06;;;;;;;6.10;5.57;;;29.50;99.90;;;;;;5079811;28;20231;-70
2021/07/12 11:57:36;;;;;;;6.00;5.50;;;29.50;99.90;;;;;;5079469;28;20250;-69
2021/07/12 12:00:08;;;;;;;6.43;5.87;;;29.50;99.90;;;;;;5095063;28;20561;-70
2021/07/12 12:02:56;;;;;;;5.88;5.38;;;29.80;99.90;;;;;;4342834;28;10001305;-70
2021/07/12 12:05:25;;;;;;;6.60;5.97;;;29.80;99.90;;;;;;3810744;28;10002045;-69
2021/07/12 12:07:57;;;;;;;6.90;6.23;;;29.60;99.90;;;;;;5027412;28;20290;-69
2021/07/12 12:10:27;;;;;;;6.30;5.80;;;29.10;99.90;;;;;;5065978;28;20330;-69
2021/07/12 12:12:57;;;;;;;6.27;5.77;;;29.00;99.90;;;;;;5066446;28;20254;-69
2021/07/12 12:15:27;;;;;;;6.23;5.63;;;28.70;99.90;;;;;;5066325;28;20292;-69
2021/07/12 12:18:00;;;;;;;6.50;5.90;;;28.50;99.90;;;;;;5065680;28;20743;-70
2021/07/12 12:20:30;;;;;;;6.53;5.93;;;28.50;99.90;;;;;;5066170;28;20292;-70
2021/07/12 12:23:16;;;;;;;6.17;5.57;;;28.70;99.90;;;;;;5067342;28;20231;-69
2021/07/12 12:25:51;;;;;;;6.70;6.17;;;28.40;99.90;;;;;;5066015;28;20317;-70
2021/07/12 12:28:26;;;;;;;6.47;5.97;;;28.30;99.90;;;;;;5063564;28;20577;-69
2021/07/12 12:30:57;;;;;;;6.30;5.33;;;28.30;99.90;;;;;;5065078;28;20245;-69
2021/07/12 12:33:29;;;;;;;6.30;5.80;;;28.20;99.90;;;;;;5061820;28;20239;-69
2021/07/12 12:35:59;;;;;;;6.43;5.83;;;28.20;99.90;;;;;;5044070;28;20625;-70
2021/07/12 12:38:28;;;;;;;6.53;5.93;;;28.20;99.90;;;;;;5034496;28;20697;-70
2021/07/12 12:41:02;;;;;;;5.83;5.43;;;28.20;99.90;;;;;;5034170;28;20243;-70
2021/07/12 12:43:30;;;;;;;6.40;5.83;;;28.30;99.90;;;;;;5044426;28;20250;-70
2021/07/12 12:46:01;;;;;;;6.40;5.63;;;28.40;99.90;;;;;;5038023;28;20297;-70
2021/07/12 12:48:41;;;;;;;5.90;5.50;;;28.40;99.90;;;;;;5044487;28;20325;-70
2021/07/12 12:51:18;;;;;;;5.30;4.90;;;28.50;99.90;;;;;;5042907;28;20242;-70
2021/07/12 12:53:56;;;;;;;5.47;4.90;;;28.20;99.90;;;;;;5042109;28;20315;-70
2021/07/12 12:56:24;;;;;;;6.30;5.00;;;28.00;99.90;;;;;;5044498;28;20247;-69
2021/07/12 12:58:57;;;;;;;5.60;5.10;;;27.80;99.90;;;;;;5044216;28;20238;-70
2021/07/12 13:01:34;;;;;;;6.07;5.13;;;27.90;99.90;;;;;;5044824;28;20555;-70
2021/07/12 13:04:13;;;;;;;7.83;4.90;;;27.80;99.90;;;;;;5044594;28;20242;-70
2021/07/12 13:06:44;;;;;;;5.40;5.00;;;27.70;99.90;;;;;;5018570;28;20278;-71
2021/07/12 13:09:14;;;;;;;5.90;5.27;;;27.70;99.90;;;;;;5019546;28;20701;-70